Time;durP1;ratioP1;P1;durP2;ratioP2;P2;SDS_P1;SDS_P2;PMS_P1;PMS_P2;Temp;Humidity;BMP_temperature;BMP_pressure;BME280_temperature;BME280_humidity;BME280_pressure;Samples;Min_cycle;Max_cycle;Signal;HPM_P1;HPM_P2
2022/03/18 00:00:38;;;;;;;39.22;21.95;;;;;;;5.84;47.07;101659.63;7710069;32;40710;-76
2022/03/18 00:04:55;;;;;;;40.25;21.70;;;;;;;6.06;46.76;101673.19;7709959;32;38032;-76
2022/03/18 00:09:11;;;;;;;37.88;22.33;;;;;;;5.64;47.62;101671.13;7710123;32;36898;-77
2022/03/18 00:13:27;;;;;;;38.90;21.92;;;;;;;5.67;48.59;101679.88;7696337;32;39121;-77
2022/03/18 00:17:43;;;;;;;37.15;20.30;;;;;;;5.73;47.94;101684.53;7709775;32;39603;-77
2022/03/18 00:22:01;;;;;;;40.63;21.67;;;;;;;5.77;47.84;101686.63;7709453;32;37663;-76
2022/03/18 00:26:17;;;;;;;37.53;22.95;;;;;;;5.71;47.65;101691.97;7696000;32;38515;-76
2022/03/18 00:30:33;;;;;;;41.65;23.08;;;;;;;5.64;47.96;101694.66;7709477;32;39465;-76
2022/03/18 00:34:49;;;;;;;38.47;21.80;;;;;;;5.67;47.94;101696.94;7709363;32;39906;-76
2022/03/18 00:39:06;;;;;;;40.38;22.33;;;;;;;5.79;47.60;101703.50;7709237;32;38779;-76
2022/03/18 00:43:23;;;;;;;43.60;22.95;;;;;;;5.79;47.12;101697.28;7709133;32;37239;-76
2022/03/18 00:52:14;;;;;;;37.95;21.85;;;;;;;5.53;48.19;101701.37;7708810;32;40844;-76
2022/03/18 00:56:30;;;;;;;45.33;21.85;;;;;;;5.43;48.05;101700.84;7695137;32;38035;-75
2022/03/18 01:00:46;;;;;;;36.25;20.48;;;;;;;5.57;47.93;101702.69;7708623;32;37185;-76
2022/03/18 01:05:02;;;;;;;35.60;21.30;;;;;;;5.57;47.41;101702.69;7710757;32;40070;-76
2022/03/18 01:09:19;;;;;;;39.22;21.58;;;;;;;5.23;48.20;101696.06;7712559;32;40857;-76
2022/03/18 01:13:35;;;;;;;37.28;20.77;;;;;;;5.12;48.63;101696.53;7712424;32;38759;-75
2022/03/18 01:17:51;;;;;;;39.03;21.80;;;;;;;5.04;48.48;101691.25;7712478;32;37143;-75
2022/03/18 01:22:10;;;;;;;35.70;21.62;;;;;;;5.03;49.06;101690.41;7712294;32;39380;-75
2022/03/18 01:26:26;;;;;;;41.95;22.80;;;;;;;5.00;49.35;101695.34;7712316;32;40599;-76
2022/03/18 01:30:42;;;;;;;37.10;23.12;;;;;;;4.95;50.00;101689.66;7711993;32;37898;-76
2022/03/18 01:34:58;;;;;;;39.72;22.30;;;;;;;5.10;49.17;101693.19;7712297;32;37260;-75
2022/03/18 01:39:14;;;;;;;40.58;23.45;;;;;;;4.88;49.81;101687.72;7712181;32;40468;-76
2022/03/18 01:43:41;;;;;;;39.53;21.37;;;;;;;4.95;50.29;101687.81;7712031;32;40712;-75
2022/03/18 01:47:57;;;;;;;38.30;21.67;;;;;;;5.06;49.71;101689.19;7711953;32;38464;-76
2022/03/18 01:52:13;;;;;;;40.40;23.98;;;;;;;4.76;50.60;101700.03;7711861;32;37126;-75
2022/03/18 01:56:29;;;;;;;38.22;22.37;;;;;;;4.84;50.43;101701.78;7698359;32;39267;-76
2022/03/18 02:00:45;;;;;;;40.80;21.65;;;;;;;4.93;50.58;101702.53;7711881;32;40071;-76
2022/03/18 02:05:03;;;;;;;50.08;23.77;;;;;;;5.06;49.60;101710.81;7711657;32;38726;-75
2022/03/18 02:09:20;;;;;;;39.00;22.45;;;;;;;4.77;51.03;101714.38;7711884;32;36325;-75
2022/03/18 02:13:36;;;;;;;43.53;23.83;;;;;;;4.76;50.85;101710.84;7697797;32;39440;-76
2022/03/18 02:17:52;;;;;;;44.30;24.17;;;;;;;4.82;51.06;101720.91;7711610;32;41360;-75
2022/03/18 02:22:15;;;;;;;38.35;22.52;;;;;;;4.91;51.70;101728.91;7711568;32;37982;-75
2022/03/18 02:26:32;;;;;;;44.07;24.07;;;;;;;5.05;51.75;101736.16;7711688;32;37973;-75
2022/03/18 02:30:48;;;;;;;43.90;23.87;;;;;;;4.96;52.32;101742.72;7711475;32;40092;-75
2022/03/18 02:35:04;;;;;;;41.25;22.87;;;;;;;5.03;52.78;101738.22;7711640;32;40818;-75
2022/03/18 02:39:21;;;;;;;45.33;25.37;;;;;;;4.97;53.17;101739.00;7711388;32;37790;-75
2022/03/18 02:43:37;;;;;;;43.75;24.05;;;;;;;4.75;54.69;101754.25;7711292;32;37805;-75
2022/03/18 02:47:58;;;;;;;41.50;23.83;;;;;;;4.66;54.44;101765.16;7711761;32;37718;-75
2022/03/18 02:52:14;;;;;;;42.33;24.33;;;;;;;4.88;53.35;101768.81;7711130;32;40753;-75
2022/03/18 02:56:31;;;;;;;42.15;24.12;;;;;;;4.79;53.59;101764.50;7711199;32;37714;-75
2022/03/18 03:00:47;;;;;;;45.15;23.23;;;;;;;4.70;53.24;101760.22;7711223;32;37959;-75
2022/03/18 03:09:38;;;;;;;39.38;22.90;;;;;;;5.05;51.04;101779.44;7711168;32;41300;-75
2022/03/18 03:13:54;;;;;;;37.13;20.58;;;;;;;5.14;50.60;101789.13;7711089;32;38338;-75
2022/03/18 03:18:11;;;;;;;35.58;21.62;;;;;;;5.11;49.83;101788.69;7711070;32;37193;-76
2022/03/18 03:22:28;;;;;;;38.38;20.95;;;;;;;5.36;48.71;101786.50;7711032;32;39222;-75
2022/03/18 03:26:44;;;;;;;32.55;18.73;;;;;;;5.48;47.92;101790.41;7696303;32;39981;-75
2022/03/18 03:31:00;;;;;;;30.92;19.55;;;;;;;5.25;48.59;101796.75;7710638;32;37963;-76
2022/03/18 03:35:17;;;;;;;47.62;24.37;;;;;;;5.00;47.68;101801.62;7710892;32;36873;-75
2022/03/18 03:39:33;;;;;;;42.95;23.33;;;;;;;5.05;52.35;101806.47;7710651;32;38995;-75
2022/03/18 03:43:50;;;;;;;38.70;22.98;;;;;;;4.83;53.99;101816.31;7710541;32;40137;-75
2022/03/18 03:48:07;;;;;;;40.00;24.55;;;;;;;4.83;53.68;101816.31;7710375;32;38808;-75
2022/03/18 03:52:23;;;;;;;30.30;17.95;;;;;;;4.66;53.77;101818.34;7709985;32;37795;-75
2022/03/18 03:56:39;;;;;;;21.92;13.90;;;;;;;4.83;52.53;101836.09;7710283;32;40009;-75
2022/03/18 04:00:55;;;;;;;19.90;11.95;;;;;;;4.84;44.38;101836.91;7710180;32;40731;-76
2022/03/18 04:05:11;;;;;;;22.95;12.48;;;;;;;4.89;41.63;101835.34;7709942;32;38848;-75
2022/03/18 04:09:28;;;;;;;22.98;11.75;;;;;;;5.04;40.24;101839.94;7709994;32;38071;-75
2022/03/18 04:13:44;;;;;;;31.65;17.87;;;;;;;5.25;39.30;101848.16;7709867;32;39303;-75
2022/03/18 04:18:00;;;;;;;37.25;19.92;;;;;;;5.30;41.14;101849.47;7709887;32;39846;-75
2022/03/18 04:22:16;;;;;;;28.25;16.45;;;;;;;5.01;46.85;101854.66;7709722;32;38681;-75
2022/03/18 04:26:32;;;;;;;22.70;14.07;;;;;;;4.69;46.63;101859.34;7709585;32;37182;-75
2022/03/18 04:30:48;;;;;;;29.65;17.50;;;;;;;4.93;41.99;101864.72;7709619;32;39226;-75
2022/03/18 04:35:06;;;;;;;22.45;11.95;;;;;;;4.94;46.46;101864.53;7709382;32;40545;-75
2022/03/18 04:39:22;;;;;;;23.40;14.13;;;;;;;5.09;42.41;101864.56;7711533;32;38823;-75
2022/03/18 04:43:38;;;;;;;21.17;10.40;;;;;;;5.08;40.53;101866.41;7712750;32;37239;-75
2022/03/18 04:47:55;;;;;;;18.02;10.13;;;;;;;5.32;36.96;101871.75;7712751;32;37752;-75
2022/03/18 04:52:11;;;;;;;14.77;9.57;;;;;;;5.39;35.48;101878.94;7712640;32;40153;-75
2022/03/18 05:01:03;;;;;;;15.65;9.15;;;;;;;5.47;33.87;101894.25;7712652;32;38061;-75
2022/03/18 05:05:20;;;;;;;19.25;9.65;;;;;;;5.51;33.82;101898.25;7712602;32;39441;-75
2022/03/18 05:09:41;;;;;;;16.40;9.52;;;;;;;5.53;33.78;101901.59;7712931;32;41045;-75
2022/03/18 05:13:58;;;;;;;18.05;9.50;;;;;;;5.76;33.29;101901.50;7712528;32;37922;-75
2022/03/18 05:18:14;;;;;;;18.65;8.98;;;;;;;5.59;33.05;101916.25;7712495;32;37187;-75
2022/03/18 05:22:30;;;;;;;18.52;9.45;;;;;;;5.75;32.62;101920.63;7712455;32;39568;-75
2022/03/18 05:26:47;;;;;;;16.02;9.15;;;;;;;5.70;32.61;101923.06;7712350;32;39653;-75
2022/03/18 05:31:03;;;;;;;20.08;10.07;;;;;;;5.33;32.64;101922.97;7712165;32;38380;-75
2022/03/18 05:35:20;;;;;;;18.48;9.90;;;;;;;5.60;32.60;101932.28;7712080;32;37234;-75
2022/03/18 05:39:36;;;;;;;18.98;9.50;;;;;;;5.66;32.97;101936.13;7712266;32;40029;-76
2022/03/18 05:43:52;;;;;;;18.05;9.68;;;;;;;5.80;32.59;101932.56;7712080;32;39910;-75
2022/03/18 05:48:09;;;;;;;18.23;9.82;;;;;;;5.58;32.49;101941.63;7712004;32;37794;-75
2022/03/18 05:52:25;;;;;;;21.83;9.85;;;;;;;5.92;32.98;101938.34;7711628;32;36877;-74
2022/03/18 05:56:53;;;;;;;17.70;8.70;;;;;;;5.89;32.79;101937.91;7712064;32;38987;-74
2022/03/18 06:01:12;;;;;;;15.85;9.20;;;;;;;5.53;32.54;101944.88;7699680;32;40906;-75
2022/03/18 06:05:28;;;;;;;19.52;9.63;;;;;;;5.75;31.78;101955.81;7711760;32;38752;-75
2022/03/18 06:14:21;;;;;;;17.80;8.93;;;;;;;6.03;31.35;101955.19;7711967;32;39835;-75
2022/03/18 06:18:37;;;;;;;19.20;8.73;;;;;;;6.30;31.51;101962.59;7711810;32;39909;-75
2022/03/18 06:22:53;;;;;;;18.55;9.27;;;;;;;6.15;32.04;101970.75;7711668;32;37968;-75
2022/03/18 06:27:10;;;;;;;17.73;9.57;;;;;;;6.17;32.50;101973.28;7711615;32;37202;-74
2022/03/18 06:31:26;;;;;;;18.08;9.88;;;;;;;6.34;32.61;101974.72;7711724;32;40098;-74
2022/03/18 06:35:43;;;;;;;18.73;9.93;;;;;;;6.57;32.05;101984.56;7708949;32;39722;-75
2022/03/18 06:39:58;;;;;;;17.65;10.25;;;;;;;6.44;32.86;101995.28;7709573;32;37550;-72
2022/03/18 06:44:15;;;;;;;15.90;10.30;;;;;;;6.67;32.19;101993.22;7711051;32;37808;-74
2022/03/18 06:48:31;;;;;;;18.65;10.27;;;;;;;6.81;32.68;102007.78;7710397;32;40091;-75
2022/03/18 06:52:47;;;;;;;17.90;10.35;;;;;;;6.94;32.68;102007.09;7727716;32;39844;-75
2022/03/18 06:57:03;;;;;;;20.75;11.07;;;;;;;6.94;32.96;102012.50;7717650;32;38133;-75
2022/03/18 07:01:21;;;;;;;19.05;9.77;;;;;;;6.61;33.11;102028.44;7710726;32;36999;-75
2022/03/18 07:05:37;;;;;;;19.73;10.82;;;;;;;6.94;32.88;102024.19;7694849;32;39383;-75
2022/03/18 07:09:53;;;;;;;19.17;10.55;;;;;;;6.93;33.04;102024.38;7711226;32;40056;-75
2022/03/18 07:14:09;;;;;;;19.60;9.85;;;;;;;6.82;32.66;102030.31;7711111;32;38205;-75
2022/03/18 07:18:25;;;;;;;18.73;9.07;;;;;;;6.77;32.60;102034.44;7697060;32;37890;-74
2022/03/18 07:22:41;;;;;;;15.90;8.88;;;;;;;6.92;32.15;102047.94;7684975;32;40115;-76
2022/03/18 07:26:57;;;;;;;15.98;8.95;;;;;;;7.03;31.42;102043.87;7684408;32;40096;-76
2022/03/18 07:31:13;;;;;;;19.30;8.63;;;;;;;6.86;31.46;102050.59;7684255;32;37997;-76
2022/03/18 07:35:31;;;;;;;12.75;7.40;;;;;;;7.07;30.74;102060.59;7684263;32;38213;-76
2022/03/18 07:39:47;;;;;;;14.02;7.97;;;;;;;7.38;30.23;102060.31;7684246;32;39001;-72
2022/03/18 07:44:03;;;;;;;12.75;7.80;;;;;;;7.69;29.47;102061.78;7684055;32;39985;-75
2022/03/18 07:48:22;;;;;;;15.45;7.55;;;;;;;7.62;32.60;102058.19;7683984;32;37983;-72
2022/03/18 07:52:38;;;;;;;23.25;12.32;;;;;;;8.12;41.47;102069.81;7683915;32;36056;-75
2022/03/18 07:56:54;;;;;;;149.82;63.78;;;;;;;8.27;29.12;102067.81;7710082;32;39984;-76
2022/03/18 08:01:10;;;;;;;29.52;16.12;;;;;;;8.31;28.86;102070.13;7709348;32;39900;-75
2022/03/18 08:05:26;;;;;;;22.08;13.62;;;;;;;8.48;28.16;102082.38;7709597;32;38109;-76
2022/03/18 08:09:44;;;;;;;25.40;15.93;;;;;;;8.45;27.38;102086.34;7710276;32;36544;-76
2022/03/18 08:14:00;;;;;;;15.10;9.43;;;;;;;8.37;28.17;102088.38;7715404;32;39860;-76
2022/03/18 08:18:18;;;;;;;16.20;9.45;;;;;;;8.55;28.30;102102.28;7718812;32;39613;-76
2022/03/18 08:22:35;;;;;;;15.75;8.35;;;;;;;8.52;28.35;102101.84;7718177;32;37885;-76
2022/03/18 08:26:51;;;;;;;12.37;7.87;;;;;;;8.80;27.96;102105.31;7704707;32;36794;-76
2022/03/18 08:31:07;;;;;;;16.80;7.93;;;;;;;8.68;28.16;102111.56;7718237;32;40025;-76
2022/03/18 08:35:23;;;;;;;17.08;9.05;;;;;;;8.65;27.98;102112.78;7717782;32;40120;-74
2022/03/18 08:39:41;;;;;;;13.93;8.00;;;;;;;8.65;27.27;102124.50;7716716;32;37612;-74
2022/03/18 08:43:57;;;;;;;15.82;8.63;;;;;;;8.71;27.64;102128.31;7717759;32;37891;-76
2022/03/18 08:48:13;;;;;;;14.43;8.32;;;;;;;8.72;28.45;102129.13;7713208;32;140330;-76
2022/03/18 08:52:29;;;;;;;17.05;8.70;;;;;;;8.96;27.75;102131.31;7717377;32;39674;-77
2022/03/18 08:56:45;;;;;;;13.88;8.27;;;;;;;8.52;28.59;102135.31;7717374;32;37799;-77
2022/03/18 09:01:01;;;;;;;19.95;10.45;;;;;;;8.77;28.47;102137.53;7717455;32;37043;-76
2022/03/18 09:05:17;;;;;;;21.37;9.82;;;;;;;8.57;28.60;102138.28;7717104;32;39359;-74
2022/03/18 09:09:33;;;;;;;16.27;9.40;;;;;;;8.85;28.55;102137.38;7690606;32;40936;-77
2022/03/18 09:13:49;;;;;;;15.13;8.68;;;;;;;8.89;28.00;102130.47;7690495;32;37947;-77
2022/03/18 09:18:05;;;;;;;17.65;9.32;;;;;;;9.31;27.92;102133.09;7690682;32;37891;-76
2022/03/18 09:22:22;;;;;;;15.98;9.48;;;;;;;9.63;27.51;102142.37;7690689;32;39386;-76
2022/03/18 09:26:38;;;;;;;17.27;9.27;;;;;;;9.80;28.01;102150.16;7709339;32;39953;-78
2022/03/18 09:30:58;;;;;;;18.12;9.05;;;;;;;9.74;27.56;102141.78;7712349;32;38060;-78
2022/03/18 09:35:16;;;;;;;17.98;9.70;;;;;;;9.85;27.75;102145.75;7712151;32;37912;-75
2022/03/18 09:39:32;;;;;;;17.52;9.35;;;;;;;9.67;27.67;102140.91;7712273;32;39333;-78
2022/03/18 09:43:52;;;;;;;17.52;10.15;;;;;;;10.34;26.84;102143.62;7712271;32;40113;-77
2022/03/18 09:48:10;;;;;;;15.07;8.88;;;;;;;10.14;27.42;102149.06;7711984;32;38055;-77
2022/03/18 09:52:26;;;;;;;14.98;9.15;;;;;;;10.39;26.72;102140.28;7711973;32;36118;-77
2022/03/18 09:56:44;;;;;;;17.10;8.82;;;;;;;10.15;27.39;102156.19;7712181;32;39411;-76
2022/03/18 10:01:01;;;;;;;20.08;9.27;;;;;;;10.32;27.40;102152.00;7711638;32;40753;-77
2022/03/18 10:05:18;;;;;;;17.05;9.75;;;;;;;10.58;26.04;102152.19;7711608;32;38689;-77
2022/03/18 10:09:34;;;;;;;21.12;9.68;;;;;;;10.68;26.34;102155.31;7710880;32;37817;-77
2022/03/18 10:13:55;;;;;;;17.70;9.88;;;;;;;10.66;26.89;102152.78;7708864;32;39225;-76
2022/03/18 10:18:13;;;;;;;19.55;10.02;;;;;;;10.81;26.19;102155.22;7711310;32;39521;-77
2022/03/18 10:22:30;;;;;;;15.10;9.57;;;;;;;10.69;26.43;102160.53;7711726;32;37707;-77
2022/03/18 10:26:46;;;;;;;16.27;9.88;;;;;;;10.81;26.43;102163.41;7711658;32;38000;-77
2022/03/18 10:31:19;;;;;;;17.02;9.40;;;;;;;11.02;25.61;102164.19;7711844;32;39413;-78
2022/03/18 10:40:17;;;;;;;17.23;9.68;;;;;;;11.34;24.85;102156.06;7712228;32;37756;-76
2022/03/18 10:44:53;;;;;;;19.80;10.02;;;;;;;10.66;25.79;102163.69;7717057;32;37446;-78
2022/03/18 10:49:10;;;;;;;18.30;9.73;;;;;;;11.38;25.41;102162.72;7711508;32;40166;-77
2022/03/18 10:53:30;;;;;;;16.80;9.75;;;;;;;11.42;23.97;102158.53;7711261;32;39936;-76
2022/03/18 10:57:54;;;;;;;20.60;11.10;;;;;;;11.60;25.38;102155.87;7711078;32;37580;-76
2022/03/18 11:02:14;;;;;;;24.33;10.45;;;;;;;11.49;24.72;102153.84;7711270;32;37200;-77
2022/03/18 11:06:30;;;;;;;23.40;10.52;;;;;;;12.18;24.35;102153.97;7697755;32;40107;-77
2022/03/18 11:15:32;;;;;;;16.58;10.43;;;;;;;12.39;24.28;102139.84;7684478;32;38630;-78
2022/03/18 11:19:48;;;;;;;16.48;10.50;;;;;;;12.81;22.76;102141.09;7671177;32;37994;-78
2022/03/18 11:24:05;;;;;;;18.48;10.80;;;;;;;12.91;22.26;102141.38;7684299;32;39411;-78
2022/03/18 11:28:22;;;;;;;18.52;9.77;;;;;;;12.90;22.98;102135.06;7670569;32;40004;-78
2022/03/18 11:32:38;;;;;;;18.02;10.20;;;;;;;13.12;23.16;102129.94;7683889;32;38707;-78
2022/03/18 11:37:21;;;;;;;18.65;10.57;;;;;;;13.55;22.56;102125.31;7696225;32;37305;-78
2022/03/18 11:41:55;;;;;;;19.05;10.90;;;;;;;13.09;21.73;102127.66;7708461;32;39110;-78
2022/03/18 11:46:17;;;;;;;22.00;10.40;;;;;;;13.25;22.22;102131.66;7709709;32;40051;-78
2022/03/18 11:50:41;;;;;;;17.50;10.05;;;;;;;13.32;22.28;102118.72;7709721;32;38655;-78
2022/03/18 11:55:01;;;;;;;19.40;11.02;;;;;;;13.74;21.94;102120.59;7710088;32;36447;-77
2022/03/18 11:59:29;;;;;;;22.62;10.68;;;;;;;13.49;21.91;102115.31;7710203;32;39459;-77
2022/03/18 12:03:45;;;;;;;19.65;10.90;;;;;;;13.19;21.87;102121.59;7710075;32;39668;-78
2022/03/18 12:08:03;;;;;;;22.35;11.43;;;;;;;13.55;22.41;102099.84;7709080;32;37975;-77
2022/03/18 12:12:21;;;;;;;20.20;11.45;;;;;;;13.10;22.25;102112.88;7709823;32;37714;-78
2022/03/18 12:16:37;;;;;;;17.52;10.98;;;;;;;13.50;21.89;102100.53;7696322;32;38506;-77
2022/03/18 12:21:30;;;;;;;20.42;11.52;;;;;;;13.82;21.12;102087.34;7708891;32;40066;-77
2022/03/18 12:25:46;;;;;;;19.77;11.27;;;;;;;13.86;21.39;102088.53;7697338;32;38025;-77
2022/03/18 12:30:05;;;;;;;19.73;12.27;;;;;;;13.99;21.78;102081.19;7707715;32;38152;-78
2022/03/18 12:34:21;;;;;;;21.30;12.20;;;;;;;13.58;22.90;102071.97;7694864;32;40205;-77
2022/03/18 12:38:37;;;;;;;23.10;12.77;;;;;;;14.77;22.24;102065.28;7693183;32;40280;-77
2022/03/18 12:42:56;;;;;;;22.27;12.43;;;;;;;15.21;21.53;102062.81;7707278;32;38222;-77
2022/03/18 12:47:12;;;;;;;26.85;12.90;;;;;;;15.49;21.54;102072.09;7707631;32;38028;-77
2022/03/18 12:51:29;;;;;;;24.10;13.23;;;;;;;15.61;21.59;102061.00;7707697;32;39856;-78
2022/03/18 12:55:57;;;;;;;24.40;13.13;;;;;;;16.07;21.02;102056.22;7708249;32;40539;-78
2022/03/18 13:00:17;;;;;;;22.20;12.95;;;;;;;15.76;21.51;102053.03;7710747;32;38121;-78
2022/03/18 13:04:59;;;;;;;22.98;13.32;;;;;;;15.28;21.27;102055.25;7711365;32;37619;-77
2022/03/18 13:09:16;;;;;;;23.75;13.65;;;;;;;16.10;20.63;102039.22;7711941;32;39270;-76
2022/03/18 13:13:32;;;;;;;24.45;13.68;;;;;;;16.38;20.34;102032.69;7711686;32;39764;-77
2022/03/18 13:17:49;;;;;;;24.50;14.23;;;;;;;16.19;20.85;102039.59;7711482;32;38080;-75
2022/03/18 13:22:06;;;;;;;25.35;14.60;;;;;;;16.52;20.60;102031.22;7698264;32;38321;-77
2022/03/18 13:26:22;;;;;;;23.15;13.55;;;;;;;16.31;20.50;102030.13;7697943;32;40023;-77
2022/03/18 13:35:13;;;;;;;24.12;13.95;;;;;;;16.92;19.81;102018.19;7709266;32;38074;-77
2022/03/18 13:39:30;;;;;;;24.60;14.15;;;;;;;16.82;19.80;102024.41;7711046;32;37213;-78
2022/03/18 13:43:56;;;;;;;20.92;13.62;;;;;;;16.87;19.61;102018.97;7710861;32;39312;-78
2022/03/18 13:48:12;;;;;;;26.15;15.27;;;;;;;16.74;18.98;102016.59;7694196;32;40189;-77
2022/03/18 13:52:36;;;;;;;26.27;15.05;;;;;;;16.92;19.22;102023.72;7696647;32;38023;-77
2022/03/18 13:57:00;;;;;;;25.67;14.23;;;;;;;16.91;18.90;102010.19;7710576;32;37321;-77
2022/03/18 14:01:18;;;;;;;21.33;13.38;;;;;;;16.88;18.94;102012.38;7696673;32;39146;-77
2022/03/18 14:05:35;;;;;;;22.70;13.40;;;;;;;17.02;18.57;102001.75;7696794;32;39951;-76
2022/03/18 14:09:56;;;;;;;22.60;13.60;;;;;;;16.64;18.95;102008.22;7709832;32;38108;-76
2022/03/18 14:14:28;;;;;;;23.40;14.00;;;;;;;16.78;18.72;102011.38;7711466;32;37186;-76
2022/03/18 14:18:45;;;;;;;24.40;15.32;;;;;;;17.02;18.51;102006.44;7698414;32;40112;-79
2022/03/18 14:23:25;;;;;;;23.52;13.60;;;;;;;16.39;19.35;102014.28;7697834;32;40039;-79
2022/03/18 14:27:43;;;;;;;23.85;13.60;;;;;;;16.76;20.45;101997.88;7698102;32;37704;-79
2022/03/18 14:32:00;;;;;;;25.90;14.18;;;;;;;17.54;19.88;101997.50;7698963;32;37122;-79
2022/03/18 14:36:16;;;;;;;24.98;14.50;;;;;;;16.88;21.20;101990.34;7710957;32;39269;-79
2022/03/18 14:40:32;;;;;;;23.27;13.85;;;;;;;17.19;19.94;101982.31;7711074;32;40782;-79
2022/03/18 14:44:48;;;;;;;22.83;12.93;;;;;;;17.55;20.83;101988.12;7711173;32;38733;-78
2022/03/18 14:49:04;;;;;;;23.65;14.25;;;;;;;17.60;20.21;101987.31;7707793;32;37394;-78
2022/03/18 14:53:21;;;;;;;25.92;12.43;;;;;;;17.20;18.88;101992.25;7737201;32;39310;-79
2022/03/18 14:57:37;;;;;;;26.70;14.38;;;;;;;17.32;20.12;101983.00;7702646;32;40035;-77
2022/03/18 15:01:53;;;;;;;25.75;14.20;;;;;;;16.91;19.71;101985.41;7709644;32;37742;-78
2022/03/18 15:06:09;;;;;;;25.80;15.00;;;;;;;17.11;19.56;101982.84;7710781;32;38102;-77
2022/03/18 15:10:26;;;;;;;25.15;15.63;;;;;;;16.93;19.97;101980.44;7709887;32;40183;-77
2022/03/18 15:14:42;;;;;;;25.37;13.95;;;;;;;16.17;20.54;101990.31;7710998;32;40582;-78
2022/03/18 15:18:59;;;;;;;24.58;14.05;;;;;;;16.33;20.86;101994.09;7709908;32;37648;-77
2022/03/18 15:23:15;;;;;;;24.67;14.35;;;;;;;15.22;22.79;101987.53;7709601;32;36885;-77
2022/03/18 15:27:31;;;;;;;25.00;13.90;;;;;;;15.37;22.51;101989.72;7710543;32;39454;-77
2022/03/18 15:31:47;;;;;;;23.52;14.35;;;;;;;15.14;22.54;101990.69;7710248;32;40825;-78
2022/03/18 15:36:04;;;;;;;22.45;13.20;;;;;;;15.35;22.50;101995.47;7710563;32;38790;-77
2022/03/18 15:40:20;;;;;;;29.27;14.38;;;;;;;15.24;22.99;101987.31;7709824;32;38336;-77
2022/03/18 15:44:37;;;;;;;21.87;13.95;;;;;;;13.68;24.23;101990.81;7710518;32;40077;-78
2022/03/18 15:48:53;;;;;;;24.92;14.68;;;;;;;13.41;24.36;101998.66;7709839;32;39602;-76
2022/03/18 15:53:09;;;;;;;25.60;15.50;;;;;;;14.08;23.84;101998.28;7728265;32;38586;-76
2022/03/18 15:57:25;;;;;;;27.27;14.98;;;;;;;13.90;24.30;101996.53;7710402;32;36904;-77
2022/03/18 16:01:42;;;;;;;24.48;14.02;;;;;;;14.33;24.12;101990.81;7709793;32;39874;-79
2022/03/18 16:05:58;;;;;;;26.48;14.25;;;;;;;14.37;23.98;101995.59;7710034;32;39992;-78
2022/03/18 16:10:14;;;;;;;26.77;15.57;;;;;;;14.15;24.35;101992.66;7709259;32;37818;-79
2022/03/18 16:14:30;;;;;;;23.80;14.93;;;;;;;14.33;24.29;101993.56;7709928;32;37501;-79
2022/03/18 16:18:55;;;;;;;25.15;13.85;;;;;;;13.58;25.37;101996.06;7709315;32;39455;-79
2022/03/18 16:23:13;;;;;;;27.60;16.12;;;;;;;14.47;24.49;101994.97;7709206;32;40618;-79
2022/03/18 16:27:30;;;;;;;26.10;15.00;;;;;;;15.09;23.92;101993.34;7693889;32;37175;-80
2022/03/18 16:31:46;;;;;;;27.17;15.82;;;;;;;15.81;22.87;101991.78;7706247;32;37182;-80
2022/03/18 16:36:02;;;;;;;25.55;16.35;;;;;;;15.71;22.82;101998.78;7708587;32;39733;-78
2022/03/18 16:40:18;;;;;;;32.50;16.45;;;;;;;15.35;23.50;102000.97;7709024;32;40976;-78
2022/03/18 16:44:34;;;;;;;30.98;17.30;;;;;;;14.70;24.59;102004.22;7723776;32;38153;-78
2022/03/18 16:53:25;;;;;;;29.73;16.45;;;;;;;13.92;25.67;102006.41;7709351;32;39051;-79
2022/03/18 16:57:41;;;;;;;25.67;14.52;;;;;;;13.36;26.71;102012.25;7711481;32;39648;-77
2022/03/18 17:01:57;;;;;;;26.75;14.98;;;;;;;13.01;27.26;102012.97;7710781;32;37968;-77
2022/03/18 17:06:13;;;;;;;29.00;15.80;;;;;;;12.74;27.76;102018.81;7710646;32;38009;-78
2022/03/18 17:10:29;;;;;;;24.45;14.85;;;;;;;12.50;28.27;102020.63;7708253;32;39287;-79
2022/03/18 17:14:46;;;;;;;58.95;34.40;;;;;;;12.25;28.73;102031.69;7699338;32;39907;-78
2022/03/18 17:19:03;;;;;;;39.45;19.60;;;;;;;11.98;29.22;102034.69;7685540;32;38841;-79
2022/03/18 17:23:19;;;;;;;30.48;16.70;;;;;;;11.94;29.09;102038.12;7686478;32;37997;-78
2022/03/18 17:27:49;;;;;;;31.83;17.20;;;;;;;11.88;29.32;102047.19;7703360;32;40076;-78
2022/03/18 17:32:05;;;;;;;42.00;18.25;;;;;;;11.71;29.89;102055.09;7679350;32;40848;-78
2022/03/18 17:36:22;;;;;;;31.65;16.83;;;;;;;11.40;30.47;102054.09;7697926;32;38707;-78
2022/03/18 17:40:37;;;;;;;35.78;21.37;;;;;;;10.97;31.56;102065.72;7700505;32;37423;-78
2022/03/18 17:44:53;;;;;;;36.42;20.00;;;;;;;11.13;31.36;102054.31;7684214;32;40081;-77
2022/03/18 17:49:11;;;;;;;34.33;19.00;;;;;;;10.94;31.86;102068.94;7685284;32;40208;-78
2022/03/18 17:53:27;;;;;;;37.13;18.30;;;;;;;10.83;31.99;102073.16;7699756;32;38083;-77
2022/03/18 17:57:43;;;;;;;32.92;19.02;;;;;;;10.49;32.56;102076.03;7711738;32;38343;-78
2022/03/18 18:01:59;;;;;;;33.45;18.92;;;;;;;10.51;32.21;102084.00;7711641;32;39307;-78
2022/03/18 18:06:15;;;;;;;37.78;18.45;;;;;;;10.30;32.53;102087.81;7711196;32;40011;-76
2022/03/18 18:10:32;;;;;;;33.72;17.50;;;;;;;9.94;33.14;102091.88;7711596;32;37982;-78
2022/03/18 18:14:48;;;;;;;27.65;16.85;;;;;;;10.14;32.81;102095.41;7711318;32;37391;-78
2022/03/18 18:23:40;;;;;;;29.87;16.48;;;;;;;9.71;33.81;102104.03;7711368;32;39975;-77
2022/03/18 18:27:58;;;;;;;34.78;18.98;;;;;;;9.82;33.32;102109.91;7711073;32;37945;-78
2022/03/18 18:32:14;;;;;;;32.83;17.73;;;;;;;9.68;33.79;102107.19;7711378;32;37417;-78
2022/03/18 18:36:30;;;;;;;35.92;18.50;;;;;;;9.68;34.42;102099.00;7710684;32;39443;-77
2022/03/18 18:40:46;;;;;;;31.87;18.73;;;;;;;9.53;34.48;102103.81;7710584;32;41406;-77
2022/03/18 18:45:22;;;;;;;31.55;19.25;;;;;;;9.23;35.12;102098.75;7710253;32;38751;-77
2022/03/18 18:49:41;;;;;;;31.75;17.98;;;;;;;9.11;35.82;102105.84;7711272;32;36889;-77
2022/03/18 18:53:57;;;;;;;33.38;18.83;;;;;;;9.30;35.26;102110.50;7738042;32;40095;-75
2022/03/18 18:58:14;;;;;;;28.70;17.42;;;;;;;9.12;35.48;102107.50;7722934;32;40797;-77
2022/03/18 19:02:30;;;;;;;32.85;18.30;;;;;;;8.92;36.09;102108.31;7711251;32;37899;-77
2022/03/18 19:07:02;;;;;;;32.53;18.95;;;;;;;8.82;36.25;102103.22;7731827;32;37438;-76
2022/03/18 19:11:19;;;;;;;27.95;17.45;;;;;;;8.51;37.23;102109.16;7738025;32;39456;-77
2022/03/18 19:15:37;;;;;;;33.50;18.67;;;;;;;8.84;36.15;102112.03;7735390;32;39665;-77
2022/03/18 19:19:54;;;;;;;31.33;17.73;;;;;;;8.59;36.52;102121.78;7730135;32;37901;-78
2022/03/18 19:24:10;;;;;;;30.05;17.02;;;;;;;8.60;36.46;102121.53;7711108;32;38048;-79
2022/03/18 19:28:26;;;;;;;30.98;16.87;;;;;;;8.48;36.67;102123.16;7707165;32;39296;-78
2022/03/18 19:32:42;;;;;;;33.67;18.40;;;;;;;8.26;37.16;102120.50;7709309;32;40228;-78
2022/03/18 19:36:58;;;;;;;34.75;18.30;;;;;;;8.14;37.44;102126.69;7707683;32;38967;-78
2022/03/18 19:41:14;;;;;;;41.25;20.05;;;;;;;8.05;37.97;102128.72;7723649;32;38054;-78
2022/03/18 19:45:31;;;;;;;33.17;19.42;;;;;;;7.96;38.29;102124.47;7737428;32;40163;-78
2022/03/18 19:49:47;;;;;;;32.50;18.58;;;;;;;7.99;38.49;102129.50;7725640;32;40127;-76
2022/03/18 19:54:03;;;;;;;36.97;19.83;;;;;;;7.87;38.58;102131.91;7709169;32;38103;-77
2022/03/18 20:02:55;;;;;;;31.45;18.40;;;;;;;7.81;38.91;102128.13;7708272;32;39508;-79
2022/03/18 20:07:12;;;;;;;30.73;16.98;;;;;;;7.92;38.65;102128.59;7706277;32;39949;-77
2022/03/18 20:11:28;;;;;;;39.17;20.30;;;;;;;8.01;38.35;102128.25;7708798;32;38644;-78
2022/03/18 20:15:44;;;;;;;34.83;19.02;;;;;;;7.52;39.32;102129.94;7707343;32;37304;-77
2022/03/18 20:20:04;;;;;;;36.20;18.87;;;;;;;7.56;39.13;102130.41;7706873;32;39509;-77
2022/03/18 20:24:21;;;;;;;37.55;19.95;;;;;;;7.61;39.45;102132.53;7699591;32;39897;-77
2022/03/18 20:28:37;;;;;;;37.40;21.35;;;;;;;7.36;39.80;102130.19;7705093;32;38013;-77